sensor_id;sensor_type;location;lat;lon;timestamp;pressure;altitude;pressure_sealevel;temperature;humidity
21203;BME280;10759;51.982;9.232;2023-03-22T00:01:15;99893.88;;;9.73;100.00
21203;BME280;10759;51.982;9.232;2023-03-22T00:03:45;99898.94;;;9.79;100.00
21203;BME280;10759;51.982;9.232;2023-03-22T00:06:13;99896.25;;;9.79;100.00
21203;BME280;10759;51.982;9.232;2023-03-22T00:08:42;99876.56;;;9.59;100.00
21203;BME280;10759;51.982;9.232;2023-03-22T00:11:10;99904.75;;;9.68;100.00
21203;BME280;10759;51.982;9.232;2023-03-22T00:13:40;99897.66;;;9.67;100.00
21203;BME280;10759;51.982;9.232;2023-03-22T00:16:09;99894.97;;;9.67;100.00
21203;BME280;10759;51.982;9.232;2023-03-22T00:18:37;99889.13;;;9.57;100.00
21203;BME280;10759;51.982;9.232;2023-03-22T00:21:10;99884.88;;;9.53;100.00
21203;BME280;10759;51.982;9.232;2023-03-22T00:23:38;99875.25;;;9.70;100.00
21203;BME280;10759;51.982;9.232;2023-03-22T00:26:06;99888.31;;;9.77;100.00
21203;BME280;10759;51.982;9.232;2023-03-22T00:28:35;99889.03;;;9.81;100.00
21203;BME280;10759;51.982;9.232;2023-03-22T00:31:06;99889.50;;;9.70;100.00
21203;BME280;10759;51.982;9.232;2023-03-22T00:33:34;99890.38;;;9.71;100.00
21203;BME280;10759;51.982;9.232;2023-03-22T00:36:04;99888.06;;;9.61;100.00
21203;BME280;10759;51.982;9.232;2023-03-22T00:38:32;99840.31;;;9.30;100.00
21203;BME280;10759;51.982;9.232;2023-03-22T00:41:10;99878.25;;;9.62;100.00
21203;BME280;10759;51.982;9.232;2023-03-22T00:43:38;99872.16;;;9.58;100.00
21203;BME280;10759;51.982;9.232;2023-03-22T00:46:08;99866.19;;;9.52;100.00
21203;BME280;10759;51.982;9.232;2023-03-22T00:48:37;99841.59;;;9.43;100.00
21203;BME280;10759;51.982;9.232;2023-03-22T00:51:05;99859.31;;;9.66;100.00
21203;BME280;10759;51.982;9.232;2023-03-22T00:53:35;99857.84;;;9.59;100.00
21203;BME280;10759;51.982;9.232;2023-03-22T00:56:08;99853.00;;;9.47;100.00
21203;BME280;10759;51.982;9.232;2023-03-22T00:58:44;99854.63;;;9.51;100.00
21203;BME280;10759;51.982;9.232;2023-03-22T01:01:13;99848.28;;;9.54;100.00
21203;BME280;10759;51.982;9.232;2023-03-22T01:03:42;99856.66;;;9.66;100.00
21203;BME280;10759;51.982;9.232;2023-03-22T01:06:13;99850.25;;;9.71;100.00
21203;BME280;10759;51.982;9.232;2023-03-22T01:08:42;99822.16;;;9.60;100.00
21203;BME280;10759;51.982;9.232;2023-03-22T01:11:10;99845.81;;;9.70;100.00
21203;BME280;10759;51.982;9.232;2023-03-22T01:13:38;99848.25;;;9.76;100.00
21203;BME280;10759;51.982;9.232;2023-03-22T01:16:08;99841.81;;;9.80;100.00
21203;BME280;10759;51.982;9.232;2023-03-22T01:18:38;99842.50;;;9.85;100.00
21203;BME280;10759;51.982;9.232;2023-03-22T01:21:07;99833.53;;;9.86;100.00
21203;BME280;10759;51.982;9.232;2023-03-22T01:23:35;99828.78;;;9.93;100.00
21203;BME280;10759;51.982;9.232;2023-03-22T01:26:04;99812.72;;;9.93;100.00
21203;BME280;10759;51.982;9.232;2023-03-22T01:28:32;99814.66;;;10.09;100.00
21203;BME280;10759;51.982;9.232;2023-03-22T01:31:00;99792.03;;;9.96;100.00
21203;BME280;10759;51.982;9.232;2023-03-22T01:33:29;99827.53;;;10.20;100.00
21203;BME280;10759;51.982;9.232;2023-03-22T01:35:59;99825.06;;;10.16;100.00
21203;BME280;10759;51.982;9.232;2023-03-22T01:38:28;99826.28;;;10.08;100.00
21203;BME280;10759;51.982;9.232;2023-03-22T01:40:57;99827.47;;;10.01;100.00
21203;BME280;10759;51.982;9.232;2023-03-22T01:43:28;99820.66;;;9.94;100.00
21203;BME280;10759;51.982;9.232;2023-03-22T01:45:57;99789.22;;;9.79;100.00
21203;BME280;10759;51.982;9.232;2023-03-22T01:48:30;99816.53;;;10.07;100.00
21203;BME280;10759;51.982;9.232;2023-03-22T01:51:04;99816.63;;;10.25;100.00
21203;BME280;10759;51.982;9.232;2023-03-22T01:54:00;99793.78;;;9.97;100.00
21203;BME280;10759;51.982;9.232;2023-03-22T01:56:32;99780.81;;;9.88;100.00
21203;BME280;10759;51.982;9.232;2023-03-22T01:59:02;99802.63;;;9.99;100.00
21203;BME280;10759;51.982;9.232;2023-03-22T02:01:47;99800.59;;;10.04;100.00
21203;BME280;10759;51.982;9.232;2023-03-22T02:04:18;99790.66;;;10.06;100.00
21203;BME280;10759;51.982;9.232;2023-03-22T02:06:51;99789.44;;;10.14;100.00
21203;BME280;10759;51.982;9.232;2023-03-22T02:09:23;99780.97;;;10.04;100.00
21203;BME280;10759;51.982;9.232;2023-03-22T02:11:59;99786.88;;;10.12;100.00
21203;BME280;10759;51.982;9.232;2023-03-22T02:14:49;99794.97;;;10.10;100.00
21203;BME280;10759;51.982;9.232;2023-03-22T02:17:48;99796.97;;;10.05;100.00
21203;BME280;10759;51.982;9.232;2023-03-22T02:21:04;99781.97;;;10.01;100.00
21203;BME280;10759;51.982;9.232;2023-03-22T02:24:08;99784.75;;;10.00;100.00
21203;BME280;10759;51.982;9.232;2023-03-22T02:27:09;99762.69;;;9.95;100.00
21203;BME280;10759;51.982;9.232;2023-03-22T02:29:44;99786.88;;;10.12;100.00
21203;BME280;10759;51.982;9.232;2023-03-22T02:32:39;99788.91;;;10.26;100.00
21203;BME280;10759;51.982;9.232;2023-03-22T02:35:32;99784.91;;;10.36;100.00
21203;BME280;10759;51.982;9.232;2023-03-22T02:38:17;99788.66;;;10.32;100.00
21203;BME280;10759;51.982;9.232;2023-03-22T02:40:51;99787.72;;;10.33;100.00
21203;BME280;10759;51.982;9.232;2023-03-22T02:43:30;99789.81;;;10.45;100.00
21203;BME280;10759;51.982;9.232;2023-03-22T02:46:06;99786.13;;;10.48;100.00
21203;BME280;10759;51.982;9.232;2023-03-22T02:48:40;99773.31;;;10.36;100.00
21203;BME280;10759;51.982;9.232;2023-03-22T02:51:15;99767.69;;;10.42;100.00
21203;BME280;10759;51.982;9.232;2023-03-22T02:53:47;99771.88;;;10.47;100.00
21203;BME280;10759;51.982;9.232;2023-03-22T02:56:22;99771.22;;;10.42;100.00
21203;BME280;10759;51.982;9.232;2023-03-22T02:58:53;99766.22;;;10.35;100.00
21203;BME280;10759;51.982;9.232;2023-03-22T03:01:25;99770.25;;;10.43;100.00
21203;BME280;10759;51.982;9.232;2023-03-22T03:03:56;99772.03;;;10.44;100.00
21203;BME280;10759;51.982;9.232;2023-03-22T03:06:27;99769.13;;;10.49;100.00
21203;BME280;10759;51.982;9.232;2023-03-22T03:08:57;99746.09;;;10.45;100.00
21203;BME280;10759;51.982;9.232;2023-03-22T03:11:32;99761.97;;;10.49;100.00
21203;BME280;10759;51.982;9.232;2023-03-22T03:14:00;99771.88;;;10.47;100.00
21203;BME280;10759;51.982;9.232;2023-03-22T03:16:30;99758.78;;;10.41;100.00
21203;BME280;10759;51.982;9.232;2023-03-22T03:19:06;99769.03;;;10.50;100.00
21203;BME280;10759;51.982;9.232;2023-03-22T03:21:41;99772.16;;;10.41;100.00
21203;BME280;10759;51.982;9.232;2023-03-22T03:24:19;99759.44;;;10.46;100.00
21203;BME280;10759;51.982;9.232;2023-03-22T03:26:56;99754.34;;;10.40;100.00
21203;BME280;10759;51.982;9.232;2023-03-22T03:29:32;99755.34;;;10.38;100.00
21203;BME280;10759;51.982;9.232;2023-03-22T03:32:06;99756.22;;;10.38;100.00
21203;BME280;10759;51.982;9.232;2023-03-22T03:34:40;99751.59;;;10.42;100.00
21203;BME280;10759;51.982;9.232;2023-03-22T03:37:13;99701.91;;;10.16;100.00
21203;BME280;10759;51.982;9.232;2023-03-22T03:39:50;99740.47;;;10.51;100.00
21203;BME280;10759;51.982;9.232;2023-03-22T03:42:22;99749.16;;;10.56;100.00
21203;BME280;10759;51.982;9.232;2023-03-22T03:44:52;99738.88;;;10.47;100.00
21203;BME280;10759;51.982;9.232;2023-03-22T03:47:22;99740.53;;;10.49;100.00
21203;BME280;10759;51.982;9.232;2023-03-22T03:49:50;99743.47;;;10.43;100.00
21203;BME280;10759;51.982;9.232;2023-03-22T03:52:18;99736.97;;;10.30;100.00
21203;BME280;10759;51.982;9.232;2023-03-22T03:54:50;99741.47;;;10.48;100.00
21203;BME280;10759;51.982;9.232;2023-03-22T03:57:26;99713.75;;;10.49;100.00
21203;BME280;10759;51.982;9.232;2023-03-22T03:59:54;99720.19;;;10.45;100.00
21203;BME280;10759;51.982;9.232;2023-03-22T04:02:39;99703.97;;;10.48;100.00
21203;BME280;10759;51.982;9.232;2023-03-22T04:05:15;99692.09;;;10.35;100.00
21203;BME280;10759;51.982;9.232;2023-03-22T04:07:43;99731.75;;;10.65;100.00
21203;BME280;10759;51.982;9.232;2023-03-22T04:10:11;99726.81;;;10.74;100.00
21203;BME280;10759;51.982;9.232;2023-03-22T04:12:41;99705.75;;;10.48;100.00
21203;BME280;10759;51.982;9.232;2023-03-22T04:15:14;99730.44;;;10.73;100.00
21203;BME280;10759;51.982;9.232;2023-03-22T04:17:48;99732.97;;;10.77;100.00
21203;BME280;10759;51.982;9.232;2023-03-22T04:20:17;99726.59;;;10.60;100.00
21203;BME280;10759;51.982;9.232;2023-03-22T04:22:46;99698.75;;;10.45;100.00
21203;BME280;10759;51.982;9.232;2023-03-22T04:25:15;99655.09;;;10.24;100.00
21203;BME280;10759;51.982;9.232;2023-03-22T04:27:56;99676.38;;;10.46;100.00
21203;BME280;10759;51.982;9.232;2023-03-22T04:30:26;99711.00;;;10.51;100.00
21203;BME280;10759;51.982;9.232;2023-03-22T04:33:00;99712.34;;;10.60;100.00
21203;BME280;10759;51.982;9.232;2023-03-22T04:36:00;99717.41;;;10.66;100.00
21203;BME280;10759;51.982;9.232;2023-03-22T04:38:36;99685.28;;;10.47;100.00
21203;BME280;10759;51.982;9.232;2023-03-22T04:41:09;99645.13;;;10.28;100.00
21203;BME280;10759;51.982;9.232;2023-03-22T04:43:43;99707.44;;;10.50;100.00
21203;BME280;10759;51.982;9.232;2023-03-22T04:46:14;99693.38;;;10.45;100.00
21203;BME280;10759;51.982;9.232;2023-03-22T04:48:51;99688.91;;;10.46;100.00
21203;BME280;10759;51.982;9.232;2023-03-22T04:51:19;99707.84;;;10.60;100.00
21203;BME280;10759;51.982;9.232;2023-03-22T04:54:02;99707.31;;;10.35;100.00
21203;BME280;10759;51.982;9.232;2023-03-22T04:56:31;99707.06;;;10.20;100.00
21203;BME280;10759;51.982;9.232;2023-03-22T04:59:00;99710.75;;;10.18;100.00
21203;BME280;10759;51.982;9.232;2023-03-22T05:01:28;99709.88;;;10.17;100.00
21203;BME280;10759;51.982;9.232;2023-03-22T05:04:07;99711.03;;;10.12;100.00
21203;BME280;10759;51.982;9.232;2023-03-22T05:06:36;99708.88;;;10.20;100.00
21203;BME280;10759;51.982;9.232;2023-03-22T05:09:14;99694.84;;;10.15;100.00
21203;BME280;10759;51.982;9.232;2023-03-22T05:11:42;99718.50;;;10.24;100.00
21203;BME280;10759;51.982;9.232;2023-03-22T05:14:20;99713.91;;;10.26;100.00
21203;BME280;10759;51.982;9.232;2023-03-22T05:16:49;99619.91;;;9.56;100.00
21203;BME280;10759;51.982;9.232;2023-03-22T05:19:17;99696.63;;;9.95;100.00
21203;BME280;10759;51.982;9.232;2023-03-22T05:21:49;99690.34;;;10.15;100.00
21203;BME280;10759;51.982;9.232;2023-03-22T05:24:32;99712.34;;;10.22;100.00
21203;BME280;10759;51.982;9.232;2023-03-22T05:27:02;99714.88;;;10.25;100.00
21203;BME280;10759;51.982;9.232;2023-03-22T05:29:33;99717.31;;;10.10;100.00
21203;BME280;10759;51.982;9.232;2023-03-22T05:32:09;99718.34;;;10.27;100.00
21203;BME280;10759;51.982;9.232;2023-03-22T05:34:39;99712.72;;;10.14;100.00
21203;BME280;10759;51.982;9.232;2023-03-22T05:37:20;99691.56;;;10.08;100.00
21203;BME280;10759;51.982;9.232;2023-03-22T05:39:54;99699.06;;;10.39;100.00
21203;BME280;10759;51.982;9.232;2023-03-22T05:42:30;99701.88;;;10.36;100.00
21203;BME280;10759;51.982;9.232;2023-03-22T05:45:02;99695.94;;;10.29;100.00
21203;BME280;10759;51.982;9.232;2023-03-22T05:47:32;99694.94;;;10.32;100.00
21203;BME280;10759;51.982;9.232;2023-03-22T05:50:05;99685.13;;;10.31;100.00
21203;BME280;10759;51.982;9.232;2023-03-22T05:52:33;99701.22;;;10.31;100.00
21203;BME280;10759;51.982;9.232;2023-03-22T05:55:25;99706.56;;;10.31;100.00
21203;BME280;10759;51.982;9.232;2023-03-22T05:57:56;99708.72;;;10.23;100.00
21203;BME280;10759;51.982;9.232;2023-03-22T06:00:27;99710.84;;;10.35;100.00
21203;BME280;10759;51.982;9.232;2023-03-22T06:03:33;99694.41;;;10.05;100.00
21203;BME280;10759;51.982;9.232;2023-03-22T06:06:11;99691.50;;;10.09;100.00
21203;BME280;10759;51.982;9.232;2023-03-22T06:08:47;99688.72;;;10.11;100.00
21203;BME280;10759;51.982;9.232;2023-03-22T06:11:14;99681.34;;;10.16;100.00
21203;BME280;10759;51.982;9.232;2023-03-22T06:13:44;99688.88;;;10.08;100.00
21203;BME280;10759;51.982;9.232;2023-03-22T06:16:14;99694.69;;;10.18;100.00
21203;BME280;10759;51.982;9.232;2023-03-22T06:18:42;99686.50;;;10.21;100.00
21203;BME280;10759;51.982;9.232;2023-03-22T06:21:11;99685.69;;;10.19;100.00
21203;BME280;10759;51.982;9.232;2023-03-22T06:23:40;99671.00;;;10.08;100.00
21203;BME280;10759;51.982;9.232;2023-03-22T06:26:09;99693.50;;;10.23;100.00
21203;BME280;10759;51.982;9.232;2023-03-22T06:28:40;99673.19;;;10.19;100.00
21203;BME280;10759;51.982;9.232;2023-03-22T06:31:09;99671.91;;;10.47;100.00
21203;BME280;10759;51.982;9.232;2023-03-22T06:34:02;99685.56;;;10.41;100.00
21203;BME280;10759;51.982;9.232;2023-03-22T06:36:35;99690.84;;;10.61;100.00
21203;BME280;10759;51.982;9.232;2023-03-22T06:39:10;99693.97;;;10.88;100.00
21203;BME280;10759;51.982;9.232;2023-03-22T06:41:42;99668.72;;;10.75;100.00
21203;BME280;10759;51.982;9.232;2023-03-22T06:44:10;99679.78;;;11.04;100.00
21203;BME280;10759;51.982;9.232;2023-03-22T06:47:01;99686.75;;;11.08;100.00
21203;BME280;10759;51.982;9.232;2023-03-22T06:49:57;99641.00;;;10.93;100.00
21203;BME280;10759;51.982;9.232;2023-03-22T06:52:39;99683.44;;;11.20;100.00
21203;BME280;10759;51.982;9.232;2023-03-22T06:55:08;99682.31;;;11.24;100.00
21203;BME280;10759;51.982;9.232;2023-03-22T06:57:35;99679.84;;;11.37;100.00
21203;BME280;10759;51.982;9.232;2023-03-22T07:00:04;99672.84;;;11.52;100.00
21203;BME280;10759;51.982;9.232;2023-03-22T07:02:33;99582.41;;;11.03;100.00
21203;BME280;10759;51.982;9.232;2023-03-22T07:05:16;99676.25;;;11.71;100.00
21203;BME280;10759;51.982;9.232;2023-03-22T07:07:44;99676.91;;;11.76;100.00
21203;BME280;10759;51.982;9.232;2023-03-22T07:10:12;99677.50;;;11.81;99.15
21203;BME280;10759;51.982;9.232;2023-03-22T07:12:40;99649.94;;;11.95;99.23
21203;BME280;10759;51.982;9.232;2023-03-22T07:15:12;99660.78;;;12.25;98.33
21203;BME280;10759;51.982;9.232;2023-03-22T07:18:12;99667.03;;;12.42;96.76
21203;BME280;10759;51.982;9.232;2023-03-22T07:20:41;99637.22;;;12.46;96.19
21203;BME280;10759;51.982;9.232;2023-03-22T07:23:09;99657.63;;;12.65;96.95
21203;BME280;10759;51.982;9.232;2023-03-22T07:25:46;99615.25;;;12.70;95.97
21203;BME280;10759;51.982;9.232;2023-03-22T07:28:21;99663.31;;;13.21;94.41
21203;BME280;10759;51.982;9.232;2023-03-22T07:30:58;99659.06;;;13.32;92.54
21203;BME280;10759;51.982;9.232;2023-03-22T07:33:28;99657.41;;;13.30;92.67
21203;BME280;10759;51.982;9.232;2023-03-22T07:35:57;99652.69;;;13.03;90.79
21203;BME280;10759;51.982;9.232;2023-03-22T07:38:25;99642.44;;;13.10;90.16
21203;BME280;10759;51.982;9.232;2023-03-22T07:40:53;99651.66;;;13.06;90.38
21203;BME280;10759;51.982;9.232;2023-03-22T07:43:27;99576.69;;;12.55;90.85
21203;BME280;10759;51.982;9.232;2023-03-22T07:46:04;99650.78;;;13.05;92.00
21203;BME280;10759;51.982;9.232;2023-03-22T07:48:58;99639.06;;;13.06;90.09
21203;BME280;10759;51.982;9.232;2023-03-22T07:51:56;99650.00;;;13.03;90.65
21203;BME280;10759;51.982;9.232;2023-03-22T07:54:24;99641.44;;;12.97;91.60
21203;BME280;10759;51.982;9.232;2023-03-22T07:57:01;99650.34;;;12.83;91.65
21203;BME280;10759;51.982;9.232;2023-03-22T07:59:31;99629.81;;;12.96;91.43
21203;BME280;10759;51.982;9.232;2023-03-22T08:01:59;99628.19;;;12.94;91.47
21203;BME280;10759;51.982;9.232;2023-03-22T08:04:36;99604.72;;;12.81;92.12
21203;BME280;10759;51.982;9.232;2023-03-22T08:07:28;99626.91;;;12.85;92.85
21203;BME280;10759;51.982;9.232;2023-03-22T08:09:57;99639.56;;;13.13;92.22
21203;BME280;10759;51.982;9.232;2023-03-22T08:12:25;99629.31;;;13.20;91.96
21203;BME280;10759;51.982;9.232;2023-03-22T08:15:03;99632.75;;;13.07;92.25
21203;BME280;10759;51.982;9.232;2023-03-22T08:17:32;99580.00;;;13.05;90.96
21203;BME280;10759;51.982;9.232;2023-03-22T08:20:02;99632.22;;;13.31;90.55
21203;BME280;10759;51.982;9.232;2023-03-22T08:22:45;99624.22;;;13.15;90.56
21203;BME280;10759;51.982;9.232;2023-03-22T08:25:25;99621.66;;;13.28;91.40
21203;BME280;10759;51.982;9.232;2023-03-22T08:27:58;99620.53;;;13.16;89.18
21203;BME280;10759;51.982;9.232;2023-03-22T08:30:26;99621.66;;;13.28;91.38
21203;BME280;10759;51.982;9.232;2023-03-22T08:32:54;99603.59;;;13.30;90.72
21203;BME280;10759;51.982;9.232;2023-03-22T08:35:22;99607.38;;;13.42;89.68
21203;BME280;10759;51.982;9.232;2023-03-22T08:37:53;99592.44;;;13.36;91.78
21203;BME280;10759;51.982;9.232;2023-03-22T08:40:27;99602.66;;;13.45;89.65
21203;BME280;10759;51.982;9.232;2023-03-22T08:42:59;99610.66;;;13.61;89.57
21203;BME280;10759;51.982;9.232;2023-03-22T08:45:28;99593.16;;;13.54;88.38
21203;BME280;10759;51.982;9.232;2023-03-22T08:48:05;99602.47;;;13.63;88.45
21203;BME280;10759;51.982;9.232;2023-03-22T08:50:49;99601.81;;;13.59;87.45
21203;BME280;10759;51.982;9.232;2023-03-22T08:53:26;99574.69;;;13.48;88.79
21203;BME280;10759;51.982;9.232;2023-03-22T08:56:11;99542.38;;;13.62;88.37
21203;BME280;10759;51.982;9.232;2023-03-22T08:58:50;99609.94;;;14.01;87.14
21203;BME280;10759;51.982;9.232;2023-03-22T09:01:33;99598.06;;;14.17;86.74
21203;BME280;10759;51.982;9.232;2023-03-22T09:04:03;99600.69;;;14.05;87.30
21203;BME280;10759;51.982;9.232;2023-03-22T09:06:34;99596.44;;;14.15;87.39
21203;BME280;10759;51.982;9.232;2023-03-22T09:09:04;99600.13;;;14.00;85.83
21203;BME280;10759;51.982;9.232;2023-03-22T09:11:32;99578.31;;;14.31;85.79
21203;BME280;10759;51.982;9.232;2023-03-22T09:14:02;99579.63;;;14.38;85.15
21203;BME280;10759;51.982;9.232;2023-03-22T09:16:31;99560.72;;;14.53;84.64
21203;BME280;10759;51.982;9.232;2023-03-22T09:19:00;99532.34;;;14.20;84.35
21203;BME280;10759;51.982;9.232;2023-03-22T09:21:29;99566.91;;;14.41;82.79
21203;BME280;10759;51.982;9.232;2023-03-22T09:24:07;99573.09;;;14.43;83.04
21203;BME280;10759;51.982;9.232;2023-03-22T09:26:41;99565.81;;;14.57;85.78
21203;BME280;10759;51.982;9.232;2023-03-22T09:29:09;99567.63;;;14.57;82.27
21203;BME280;10759;51.982;9.232;2023-03-22T09:31:38;99564.94;;;14.57;83.69
21203;BME280;10759;51.982;9.232;2023-03-22T09:34:15;99554.13;;;14.30;82.22
21203;BME280;10759;51.982;9.232;2023-03-22T09:36:43;99540.75;;;14.43;82.17
21203;BME280;10759;51.982;9.232;2023-03-22T09:39:14;99537.50;;;14.10;84.58
21203;BME280;10759;51.982;9.232;2023-03-22T09:41:45;99562.34;;;14.28;83.59
21203;BME280;10759;51.982;9.232;2023-03-22T09:44:19;99502.72;;;14.20;83.51
21203;BME280;10759;51.982;9.232;2023-03-22T09:46:53;99554.91;;;14.59;82.69
21203;BME280;10759;51.982;9.232;2023-03-22T09:49:26;99513.53;;;14.60;81.62
21203;BME280;10759;51.982;9.232;2023-03-22T09:51:55;99549.63;;;15.10;83.86
21203;BME280;10759;51.982;9.232;2023-03-22T09:54:31;99517.34;;;15.34;78.46
21203;BME280;10759;51.982;9.232;2023-03-22T09:57:02;99549.31;;;15.28;79.08
21203;BME280;10759;51.982;9.232;2023-03-22T09:59:37;99557.94;;;15.33;79.68
21203;BME280;10759;51.982;9.232;2023-03-22T10:02:25;99562.16;;;15.24;77.19
21203;BME280;10759;51.982;9.232;2023-03-22T10:04:58;99555.03;;;15.36;79.19
21203;BME280;10759;51.982;9.232;2023-03-22T10:07:35;99545.81;;;15.64;78.66
21203;BME280;10759;51.982;9.232;2023-03-22T10:10:12;99549.03;;;15.82;75.92
21203;BME280;10759;51.982;9.232;2023-03-22T10:12:49;99549.84;;;15.71;76.18
21203;BME280;10759;51.982;9.232;2023-03-22T10:15:23;99547.25;;;16.06;72.73
21203;BME280;10759;51.982;9.232;2023-03-22T10:17:54;99536.09;;;15.74;74.54
21203;BME280;10759;51.982;9.232;2023-03-22T10:20:31;99539.69;;;15.49;75.50
21203;BME280;10759;51.982;9.232;2023-03-22T10:23:06;99534.91;;;15.65;77.12
21203;BME280;10759;51.982;9.232;2023-03-22T10:25:40;99525.63;;;15.70;73.65
21203;BME280;10759;51.982;9.232;2023-03-22T10:28:15;99528.94;;;15.86;76.11
21203;BME280;10759;51.982;9.232;2023-03-22T10:33:13;99534.34;;;15.86;73.84
21203;BME280;10759;51.982;9.232;2023-03-22T10:35:44;99440.34;;;15.41;75.15
21203;BME280;10759;51.982;9.232;2023-03-22T10:38:18;99523.59;;;15.97;73.79
21203;BME280;10759;51.982;9.232;2023-03-22T10:40:50;99526.38;;;16.08;72.05
21203;BME280;10759;51.982;9.232;2023-03-22T10:43:22;99540.34;;;16.26;67.23
21203;BME280;10759;51.982;9.232;2023-03-22T10:45:53;99533.31;;;16.13;58.12
21203;BME280;10759;51.982;9.232;2023-03-22T10:48:26;99521.78;;;16.22;58.64
21203;BME280;10759;51.982;9.232;2023-03-22T10:50:55;99522.00;;;16.19;58.07
21203;BME280;10759;51.982;9.232;2023-03-22T10:53:29;99512.88;;;16.08;60.74
21203;BME280;10759;51.982;9.232;2023-03-22T10:56:00;99517.72;;;16.16;57.85
21203;BME280;10759;51.982;9.232;2023-03-22T10:58:29;99517.75;;;16.03;55.20
21203;BME280;10759;51.982;9.232;2023-03-22T11:01:03;99512.13;;;16.06;56.42
21203;BME280;10759;51.982;9.232;2023-03-22T11:03:36;99520.13;;;16.32;57.54
21203;BME280;10759;51.982;9.232;2023-03-22T11:06:08;99513.81;;;16.56;59.60
21203;BME280;10759;51.982;9.232;2023-03-22T11:08:42;99509.34;;;16.43;54.44
21203;BME280;10759;51.982;9.232;2023-03-22T11:11:20;99503.28;;;16.28;60.17
21203;BME280;10759;51.982;9.232;2023-03-22T11:13:54;99493.31;;;16.29;55.85
21203;BME280;10759;51.982;9.232;2023-03-22T11:16:23;99512.88;;;16.57;53.65
21203;BME280;10759;51.982;9.232;2023-03-22T11:18:51;99487.88;;;16.42;54.42
21203;BME280;10759;51.982;9.232;2023-03-22T11:21:23;99520.09;;;16.80;56.54
21203;BME280;10759;51.982;9.232;2023-03-22T11:23:55;99511.72;;;16.83;57.28
21203;BME280;10759;51.982;9.232;2023-03-22T11:26:30;99523.13;;;17.11;57.32
21203;BME280;10759;51.982;9.232;2023-03-22T11:29:11;99527.28;;;17.15;54.14
21203;BME280;10759;51.982;9.232;2023-03-22T11:31:54;99535.91;;;17.20;52.58
21203;BME280;10759;51.982;9.232;2023-03-22T11:34:26;99534.31;;;17.06;54.95
21203;BME280;10759;51.982;9.232;2023-03-22T11:36:58;99535.13;;;16.84;54.58
21203;BME280;10759;51.982;9.232;2023-03-22T11:39:27;99540.19;;;17.00;56.15
21203;BME280;10759;51.982;9.232;2023-03-22T11:41:58;99541.19;;;16.75;53.52
21203;BME280;10759;51.982;9.232;2023-03-22T11:44:31;99541.78;;;16.91;54.80
21203;BME280;10759;51.982;9.232;2023-03-22T11:47:01;99536.38;;;17.03;53.50
21203;BME280;10759;51.982;9.232;2023-03-22T11:49:37;99532.56;;;16.70;54.91
21203;BME280;10759;51.982;9.232;2023-03-22T11:52:09;99513.38;;;16.62;52.02
21203;BME280;10759;51.982;9.232;2023-03-22T11:54:38;99523.94;;;16.65;55.27
21203;BME280;10759;51.982;9.232;2023-03-22T11:57:13;99527.53;;;17.01;54.35
21203;BME280;10759;51.982;9.232;2023-03-22T11:59:47;99508.22;;;16.94;52.22
21203;BME280;10759;51.982;9.232;2023-03-22T12:02:22;99477.94;;;16.89;54.18
21203;BME280;10759;51.982;9.232;2023-03-22T12:04:55;99524.78;;;16.89;52.41
21203;BME280;10759;51.982;9.232;2023-03-22T12:07:29;99535.56;;;16.78;53.80
21203;BME280;10759;51.982;9.232;2023-03-22T12:10:02;99532.81;;;17.02;53.59
21203;BME280;10759;51.982;9.232;2023-03-22T12:12:36;99499.47;;;17.02;54.55
21203;BME280;10759;51.982;9.232;2023-03-22T12:15:12;99527.78;;;17.09;53.69
21203;BME280;10759;51.982;9.232;2023-03-22T12:17:46;99533.06;;;16.99;51.81
21203;BME280;10759;51.982;9.232;2023-03-22T12:20:20;99527.34;;;16.80;52.02
21203;BME280;10759;51.982;9.232;2023-03-22T12:22:53;99523.72;;;17.03;56.27
21203;BME280;10759;51.982;9.232;2023-03-22T12:25:24;99523.09;;;16.88;51.04
21203;BME280;10759;51.982;9.232;2023-03-22T12:27:57;99525.25;;;16.83;51.89
21203;BME280;10759;51.982;9.232;2023-03-22T12:30:29;99515.09;;;16.63;53.30
21203;BME280;10759;51.982;9.232;2023-03-22T12:33:01;99509.59;;;16.75;51.72
21203;BME280;10759;51.982;9.232;2023-03-22T12:35:33;99505.81;;;16.78;56.58
21203;BME280;10759;51.982;9.232;2023-03-22T12:38:12;99506.59;;;17.03;52.28
21203;BME280;10759;51.982;9.232;2023-03-22T12:40:43;99499.88;;;17.08;54.90
21203;BME280;10759;51.982;9.232;2023-03-22T12:43:15;99503.44;;;17.20;52.38
21203;BME280;10759;51.982;9.232;2023-03-22T12:45:47;99491.63;;;17.32;52.92
21203;BME280;10759;51.982;9.232;2023-03-22T12:48:21;99499.25;;;17.50;51.92
21203;BME280;10759;51.982;9.232;2023-03-22T12:50:56;99483.50;;;16.99;52.24
21203;BME280;10759;51.982;9.232;2023-03-22T12:53:29;99485.44;;;17.08;51.47
21203;BME280;10759;51.982;9.232;2023-03-22T12:55:59;99477.88;;;17.35;51.58
21203;BME280;10759;51.982;9.232;2023-03-22T12:58:28;99466.66;;;17.29;50.51
21203;BME280;10759;51.982;9.232;2023-03-22T13:01:00;99472.44;;;17.35;48.92
21203;BME280;10759;51.982;9.232;2023-03-22T13:03:38;99454.56;;;16.88;53.05
21203;BME280;10759;51.982;9.232;2023-03-22T13:06:28;99461.56;;;16.79;54.90
21203;BME280;10759;51.982;9.232;2023-03-22T13:09:10;99461.47;;;17.14;52.14
21203;BME280;10759;51.982;9.232;2023-03-22T13:11:42;99441.78;;;17.12;50.61
21203;BME280;10759;51.982;9.232;2023-03-22T13:14:52;99457.16;;;17.34;51.28
21203;BME280;10759;51.982;9.232;2023-03-22T13:17:32;99466.75;;;17.50;51.59
21203;BME280;10759;51.982;9.232;2023-03-22T13:20:27;99481.78;;;17.20;52.44
21203;BME280;10759;51.982;9.232;2023-03-22T13:23:11;99457.03;;;17.25;51.07
21203;BME280;10759;51.982;9.232;2023-03-22T13:25:59;99454.56;;;17.10;52.04
21203;BME280;10759;51.982;9.232;2023-03-22T13:28:28;99442.28;;;16.84;51.76
21203;BME280;10759;51.982;9.232;2023-03-22T13:31:02;99449.28;;;16.98;52.61
21203;BME280;10759;51.982;9.232;2023-03-22T13:33:33;99451.25;;;16.95;53.67